Time;durP1;ratioP1;P1;durP2;ratioP2;P2;SDS_P1;SDS_P2;PMS_P1;PMS_P2;Temp;Humidity;BMP_temperature;BMP_pressure;BME280_temperature;BME280_humidity;BME280_pressure;Samples;Min_cycle;Max_cycle;Signal;HPM_P1;HPM_P2
2022/05/27 00:00:49;;;;;;;3.65;1.90;;;;;;;16.02;64.97;98806.81;4188596;28;20462;-71
2022/05/27 00:02:50;;;;;;;3.78;2.10;;;;;;;16.04;65.09;98805.59;4185259;28;20083;-71
2022/05/27 00:04:51;;;;;;;3.63;1.70;;;;;;;16.07;65.33;98810.38;4189890;28;20053;-71
2022/05/27 00:06:51;;;;;;;5.35;2.40;;;;;;;16.05;65.23;98807.97;4190297;28;20040;-71
2022/05/27 00:08:51;;;;;;;4.40;2.15;;;;;;;16.05;65.07;98799.59;4189867;28;20059;-71
2022/05/27 00:10:54;;;;;;;4.00;2.00;;;;;;;16.08;64.92;98809.97;4189970;28;20138;-71
2022/05/27 00:12:55;;;;;;;3.03;2.10;;;;;;;16.09;65.02;98799.59;4188222;28;20041;-71
2022/05/27 00:14:55;;;;;;;2.85;1.88;;;;;;;16.12;64.99;98807.16;4186770;28;20041;-71
2022/05/27 00:16:55;;;;;;;3.30;2.05;;;;;;;16.10;64.95;98804.78;4186659;28;20032;-71
2022/05/27 00:18:58;;;;;;;5.40;2.22;;;;;;;16.08;65.44;98803.59;4186462;28;20063;-71
2022/05/27 00:20:59;;;;;;;6.30;2.15;;;;;;;16.08;65.39;98795.22;4188131;28;20047;-71
2022/05/27 00:23:00;;;;;;;4.18;2.10;;;;;;;16.09;65.43;98792.03;4185555;27;20472;-71
2022/05/27 00:25:02;;;;;;;5.72;2.10;;;;;;;16.07;65.35;98794.44;4184944;28;20198;-71
2022/05/27 00:27:05;;;;;;;4.70;2.17;;;;;;;16.05;65.17;98793.22;4187222;28;20075;-71
2022/05/27 00:29:05;;;;;;;3.92;2.10;;;;;;;16.00;65.83;98792.47;4184728;28;20073;-71
2022/05/27 00:31:06;;;;;;;4.05;1.90;;;;;;;16.01;65.76;98788.47;4190551;27;20122;-71
2022/05/27 00:33:06;;;;;;;4.13;2.00;;;;;;;16.02;65.60;98790.06;4187177;28;20044;-71
2022/05/27 00:35:08;;;;;;;5.70;2.03;;;;;;;16.07;65.48;98790.84;4187006;28;20044;-71
2022/05/27 00:37:08;;;;;;;2.33;1.60;;;;;;;16.02;65.88;98789.28;4184553;28;21077;-71
2022/05/27 00:39:08;;;;;;;4.88;2.05;;;;;;;16.00;65.98;98783.31;4184828;28;20079;-71
2022/05/27 00:41:10;;;;;;;3.40;1.70;;;;;;;16.01;66.04;98784.91;4187939;28;21024;-71
2022/05/27 00:43:11;;;;;;;3.90;2.10;;;;;;;16.04;65.48;98778.50;4184416;28;20534;-71
2022/05/27 00:45:18;;;;;;;4.18;1.75;;;;;;;16.06;65.67;98776.09;4184636;27;20052;-71
2022/05/27 00:47:22;;;;;;;4.10;1.98;;;;;;;16.05;66.21;98782.88;4187742;28;20072;-71
2022/05/27 00:49:25;;;;;;;2.70;1.80;;;;;;;16.04;65.34;98786.84;4182303;28;20075;-71
2022/05/27 00:51:30;;;;;;;3.40;1.70;;;;;;;16.08;65.63;98773.69;4187950;28;20331;-71
2022/05/27 00:53:40;;;;;;;4.30;2.03;;;;;;;16.12;65.44;98771.66;4188003;28;20115;-71
2022/05/27 00:55:48;;;;;;;4.35;1.70;;;;;;;16.14;65.41;98763.69;4186407;28;20039;-71
2022/05/27 00:57:52;;;;;;;4.43;1.67;;;;;;;16.04;65.57;98761.75;4187137;28;20029;-71
2022/05/27 00:59:58;;;;;;;6.05;1.90;;;;;;;16.01;66.63;98759.78;4185969;28;20045;-71
2022/05/27 01:01:59;;;;;;;4.25;1.75;;;;;;;15.97;66.21;98753.41;4187198;28;20056;-71
2022/05/27 01:04:01;;;;;;;5.82;2.03;;;;;;;15.93;66.43;98747.06;4189306;28;20078;-73
2022/05/27 01:06:02;;;;;;;;;;;;;;;15.89;66.64;98737.94;4187909;28;20488;-72
2022/05/27 01:08:05;;;;;;;2.50;1.65;;;;;;;15.83;66.65;98731.97;4185954;28;19919;-72
2022/05/27 01:10:09;;;;;;;3.80;2.20;;;;;;;15.81;66.94;98737.19;4186253;28;20033;-72
2022/05/27 01:12:34;;;;;;;3.90;1.85;;;;;;;15.77;66.99;98732.81;4185400;28;20801;-71
2022/05/27 01:14:58;;;;;;;6.32;1.77;;;;;;;15.69;67.11;98738.41;4185994;28;20135;-71
2022/05/27 01:17:23;;;;;;;3.05;1.80;;;;;;;15.65;67.45;98732.06;4186038;28;20567;-73
2022/05/27 01:22:17;;;;;;;3.30;2.03;;;;;;;15.52;67.94;98724.53;4183185;28;20050;-71
2022/05/27 01:24:40;;;;;;;3.95;1.88;;;;;;;15.43;68.25;98727.75;4189560;28;20036;-71
2022/05/27 01:27:11;;;;;;;4.82;2.33;;;;;;;15.39;68.82;98727.78;4186756;28;20032;-71
2022/05/27 01:29:23;;;;;;;3.03;1.90;;;;;;;15.33;68.78;98732.19;4193646;28;20044;-71
2022/05/27 01:31:32;;;;;;;3.83;1.70;;;;;;;15.27;69.39;98735.78;4200824;27;20091;-73
2022/05/27 01:33:59;;;;;;;6.53;1.95;;;;;;;15.23;69.45;98733.00;4190402;27;20044;-71
2022/05/27 01:36:06;;;;;;;3.72;1.75;;;;;;;15.23;69.64;98735.00;4186163;28;20041;-71
2022/05/27 01:38:19;;;;;;;3.90;2.10;;;;;;;15.22;69.79;98734.19;4185387;28;20059;-71
2022/05/27 01:40:26;;;;;;;3.72;1.80;;;;;;;15.20;69.50;98730.22;4186276;28;20230;-71
2022/05/27 01:42:55;;;;;;;5.00;2.10;;;;;;;15.27;69.78;98725.41;4185136;28;20044;-71
2022/05/27 01:45:06;;;;;;;4.28;1.92;;;;;;;15.22;69.80;98719.44;4191071;28;20460;-73
2022/05/27 01:47:12;;;;;;;3.08;1.65;;;;;;;15.18;69.71;98717.50;4201318;27;20534;-71
2022/05/27 01:49:16;;;;;;;3.60;2.10;;;;;;;15.16;69.95;98719.88;4193418;28;20086;-71
2022/05/27 01:51:26;;;;;;;4.18;2.10;;;;;;;15.11;70.07;98717.50;4190152;27;20083;-73
2022/05/27 01:53:36;;;;;;;2.53;1.67;;;;;;;15.08;70.62;98717.53;4185989;28;20037;-71
2022/05/27 01:55:50;;;;;;;5.18;1.85;;;;;;;15.05;70.79;98710.75;4198087;27;20713;-71
2022/05/27 01:58:02;;;;;;;6.32;2.97;;;;;;;15.06;71.00;98706.78;4188509;28;20059;-71
2022/05/27 02:00:11;;;;;;;4.22;1.90;;;;;;;15.06;70.87;98715.16;4195689;27;20036;-74
2022/05/27 02:02:18;;;;;;;5.20;2.45;;;;;;;14.99;70.92;98701.22;4187910;28;20040;-72
2022/05/27 02:04:25;;;;;;;6.03;2.50;;;;;;;15.01;71.18;98698.81;4187060;28;20457;-71
2022/05/27 02:06:34;;;;;;;3.80;2.13;;;;;;;15.00;71.20;98696.44;4186311;28;20044;-71
2022/05/27 02:08:53;;;;;;;4.90;2.20;;;;;;;15.00;71.32;98688.88;4185581;28;20091;-73
2022/05/27 02:11:25;;;;;;;4.22;2.10;;;;;;;15.06;70.78;98690.06;4190351;27;20198;-73
2022/05/27 02:13:33;;;;;;;5.20;2.10;;;;;;;15.08;70.83;98689.66;4184509;28;20121;-73
2022/05/27 02:15:40;;;;;;;3.80;1.70;;;;;;;15.12;70.54;98682.06;4186131;28;20434;-73
2022/05/27 02:17:46;;;;;;;4.93;2.20;;;;;;;15.12;70.76;98677.28;4186288;28;20048;-72
2022/05/27 02:19:53;;;;;;;2.75;2.13;;;;;;;15.12;70.71;98676.50;4184294;28;20037;-73
2022/05/27 02:21:58;;;;;;;5.78;2.47;;;;;;;15.12;70.68;98679.28;4185707;28;20131;-73
2022/05/27 02:24:05;;;;;;;3.25;2.08;;;;;;;15.13;70.83;98684.44;4184719;28;20044;-73
2022/05/27 02:26:12;;;;;;;4.25;1.80;;;;;;;15.12;70.92;98693.22;4192084;27;20051;-73
2022/05/27 02:28:24;;;;;;;2.60;2.00;;;;;;;15.13;71.10;98690.03;4192188;28;20473;-74
2022/05/27 02:30:29;;;;;;;6.70;2.10;;;;;;;15.10;71.18;98685.25;4185766;28;20044;-73
2022/05/27 02:32:37;;;;;;;3.80;2.00;;;;;;;15.13;71.23;98689.22;4186312;28;20044;-73
2022/05/27 02:37:28;;;;;;;6.50;2.17;;;;;;;15.12;71.33;98682.06;4185553;28;20250;-73
2022/05/27 02:39:29;;;;;;;2.67;1.83;;;;;;;15.12;70.83;98674.50;4196077;27;20028;-73
2022/05/27 02:41:43;;;;;;;7.15;2.30;;;;;;;15.12;71.16;98677.28;4200939;27;21156;-73
2022/05/27 02:44:05;;;;;;;3.38;2.00;;;;;;;15.12;71.03;98682.06;4200211;27;20788;-73
2022/05/27 02:46:18;;;;;;;4.10;2.13;;;;;;;15.13;71.51;98676.09;4185181;28;20492;-73
2022/05/27 02:48:46;;;;;;;4.75;1.83;;;;;;;15.13;71.25;98673.31;4197093;27;20391;-73
2022/05/27 02:51:04;;;;;;;4.38;2.00;;;;;;;15.13;71.29;98678.09;4184851;28;20488;-73
2022/05/27 02:53:13;;;;;;;3.30;2.22;;;;;;;15.14;71.08;98677.69;4186536;28;20114;-73
2022/05/27 02:55:36;;;;;;;3.85;2.40;;;;;;;15.15;71.63;98687.66;4191986;27;20049;-73
2022/05/27 02:57:46;;;;;;;5.80;2.10;;;;;;;15.13;71.22;98687.22;4185564;28;20037;-73
2022/05/27 02:59:47;;;;;;;2.80;2.00;;;;;;;15.12;71.57;98682.84;4184495;28;20033;-73
2022/05/27 03:01:48;;;;;;;4.03;2.22;;;;;;;15.13;71.22;98675.28;4185506;27;20040;-73
2022/05/27 03:03:48;;;;;;;4.07;2.00;;;;;;;15.11;71.55;98674.91;4185670;28;20326;-73
2022/05/27 03:06:00;;;;;;;4.32;2.10;;;;;;;15.09;71.52;98678.09;4187171;28;20032;-73
2022/05/27 03:08:21;;;;;;;6.95;2.40;;;;;;;15.11;71.39;98680.47;4187022;28;20045;-73
2022/05/27 03:10:27;;;;;;;7.20;2.70;;;;;;;15.08;71.71;98676.53;4187946;28;20503;-73
2022/05/27 03:13:06;;;;;;;5.00;2.22;;;;;;;15.12;71.74;98670.91;4188357;28;20044;-73
2022/05/27 03:15:50;;;;;;;7.78;2.75;;;;;;;15.13;71.43;98664.16;4187899;28;20261;-73
2022/05/27 03:18:14;;;;;;;4.95;2.05;;;;;;;15.10;71.76;98657.41;4188209;28;20045;-72
2022/05/27 03:20:36;;;;;;;7.20;2.42;;;;;;;15.11;71.76;98664.56;4187353;28;20492;-73
2022/05/27 03:22:48;;;;;;;3.05;2.00;;;;;;;15.08;72.03;98670.94;4187898;28;20314;-73
2022/05/27 03:25:01;;;;;;;7.95;2.78;;;;;;;15.05;72.33;98670.94;4194802;27;20466;-73
2022/05/27 03:27:33;;;;;;;4.60;2.67;;;;;;;15.04;72.45;98664.56;4198600;27;20079;-73
2022/05/27 03:29:43;;;;;;;6.60;2.30;;;;;;;15.05;72.48;98679.31;4186641;28;20478;-73
2022/05/27 03:31:50;;;;;;;2.92;2.30;;;;;;;15.09;72.20;98658.59;4188342;28;20709;-73
2022/05/27 03:34:12;;;;;;;5.32;2.22;;;;;;;15.11;72.19;98667.34;4188230;28;20090;-73
2022/05/27 03:36:49;;;;;;;4.97;2.55;;;;;;;15.16;72.05;98661.38;4203818;27;20051;-73
2022/05/27 03:39:06;;;;;;;4.07;2.20;;;;;;;15.15;72.58;98670.13;4158064;28;20119;-73
2022/05/27 03:41:15;;;;;;;3.60;2.08;;;;;;;15.12;72.08;98663.34;4187796;28;20094;-73
2022/05/27 03:43:16;;;;;;;4.78;2.50;;;;;;;15.08;72.56;98672.94;4188169;28;20036;-73
2022/05/27 03:45:20;;;;;;;4.88;2.67;;;;;;;15.08;72.33;98662.59;4187540;28;20041;-73
2022/05/27 03:47:20;;;;;;;2.90;2.00;;;;;;;15.12;72.57;98668.13;4194200;28;20066;-73
2022/05/27 03:49:21;;;;;;;3.95;2.25;;;;;;;15.11;72.27;98667.34;4202556;27;20054;-73
2022/05/27 03:51:26;;;;;;;5.00;2.05;;;;;;;15.09;72.37;98661.38;4203247;27;20089;-73
2022/05/27 03:54:03;;;;;;;6.57;2.30;;;;;;;15.09;72.62;98661.38;4192994;27;20127;-73
2022/05/27 03:55:47;;;;;;;4.32;2.10;;;;;;;15.08;72.85;98657.00;4187560;28;20445;-73
2022/05/27 03:57:48;;;;;;;4.40;2.20;;;;;;;15.07;73.03;98674.16;4193633;28;20040;-73
2022/05/27 03:59:48;;;;;;;3.90;2.40;;;;;;;15.07;73.16;98663.78;4187001;28;20215;-73
2022/05/27 04:01:51;;;;;;;4.65;2.13;;;;;;;15.14;72.72;98672.13;4187961;28;20076;-73
2022/05/27 04:03:52;;;;;;;3.17;2.20;;;;;;;15.10;73.27;98664.97;4198858;28;20032;-73
2022/05/27 04:05:53;;;;;;;4.45;2.47;;;;;;;15.13;73.04;98658.56;4202158;27;20101;-73
2022/05/27 04:07:53;;;;;;;5.88;1.90;;;;;;;15.14;73.08;98655.41;4203181;27;20440;-72
2022/05/27 04:09:53;;;;;;;4.65;2.17;;;;;;;15.14;73.12;98658.19;4200821;27;20044;-73
2022/05/27 04:11:54;;;;;;;4.75;2.03;;;;;;;15.20;72.64;98671.69;4202320;27;20058;-73
2022/05/27 04:13:55;;;;;;;8.48;3.10;;;;;;;15.24;72.45;98670.50;4203038;27;20135;-73
2022/05/27 04:15:55;;;;;;;5.00;2.38;;;;;;;15.20;73.14;98666.13;4202953;27;20523;-72
2022/05/27 04:17:56;;;;;;;3.42;2.30;;;;;;;15.20;73.43;98680.84;4196546;27;20075;-73
2022/05/27 04:20:02;;;;;;;4.50;2.22;;;;;;;15.26;73.39;98672.88;4187274;28;20041;-73
2022/05/27 04:22:03;;;;;;;5.18;2.10;;;;;;;15.25;73.25;98674.88;4187055;28;20369;-73
2022/05/27 04:24:04;;;;;;;4.90;2.38;;;;;;;15.21;73.76;98665.72;4187224;28;20024;-72
2022/05/27 04:26:05;;;;;;;4.63;2.60;;;;;;;15.15;73.62;98667.34;4195784;27;20032;-73
2022/05/27 04:28:05;;;;;;;5.95;2.45;;;;;;;15.16;73.80;98671.72;4202537;28;20067;-73
2022/05/27 04:30:07;;;;;;;4.72;2.17;;;;;;;15.14;73.80;98672.13;4201418;27;20032;-73
2022/05/27 04:32:08;;;;;;;2.70;1.80;;;;;;;15.15;73.86;98684.06;4194218;28;20067;-73
2022/05/27 04:34:10;;;;;;;5.97;2.33;;;;;;;15.14;73.77;98677.69;4185843;28;20130;-73
2022/05/27 04:36:11;;;;;;;3.37;2.00;;;;;;;15.04;74.51;98686.88;4187231;28;20283;-73
2022/05/27 04:38:12;;;;;;;5.78;2.60;;;;;;;15.10;74.54;98693.63;4186130;28;20028;-73
2022/05/27 04:40:12;;;;;;;3.45;2.35;;;;;;;15.07;74.58;98683.28;4191637;28;20447;-73
2022/05/27 04:42:13;;;;;;;5.70;2.15;;;;;;;15.08;75.00;98692.44;4189022;28;20131;-73
2022/05/27 04:44:13;;;;;;;3.53;1.92;;;;;;;15.04;74.79;98695.22;4187357;28;20132;-73
2022/05/27 04:46:13;;;;;;;2.90;2.30;;;;;;;15.02;74.91;98696.84;4186890;28;20051;-73
2022/05/27 04:48:17;;;;;;;3.50;2.17;;;;;;;15.04;74.81;98688.88;4186091;28;20391;-73
2022/05/27 04:50:18;;;;;;;3.92;2.10;;;;;;;15.02;75.80;98688.47;4186428;28;20115;-73
2022/05/27 04:52:31;;;;;;;5.40;2.33;;;;;;;14.95;77.44;98685.72;4186427;28;20031;-73
2022/05/27 04:54:31;;;;;;;4.43;2.20;;;;;;;14.92;77.71;98678.97;4186988;28;20037;-73
2022/05/27 04:56:32;;;;;;;5.22;2.20;;;;;;;14.90;77.68;98681.34;4185640;28;20420;-73
2022/05/27 04:58:32;;;;;;;2.70;2.20;;;;;;;14.91;77.75;98688.50;4186133;28;20052;-73
2022/05/27 05:00:36;;;;;;;4.85;2.70;;;;;;;14.83;78.45;98676.59;4186540;28;20041;-73
2022/05/27 05:02:36;;;;;;;9.05;2.75;;;;;;;14.93;78.02;98676.97;4186827;28;20463;-73
2022/05/27 05:04:36;;;;;;;5.20;2.90;;;;;;;14.87;78.58;98687.72;4185860;28;20044;-73
2022/05/27 05:06:37;;;;;;;5.18;2.28;;;;;;;14.84;78.29;98696.88;4114867;27;20418;-73
2022/05/27 05:08:39;;;;;;;4.68;2.40;;;;;;;14.77;79.14;98691.31;4200940;27;20079;-73
2022/05/27 05:10:40;;;;;;;3.85;2.40;;;;;;;14.72;79.17;98705.66;4188092;28;20086;-73
2022/05/27 05:12:40;;;;;;;4.45;2.50;;;;;;;14.69;80.23;98706.47;4191996;28;20291;-73
2022/05/27 05:14:41;;;;;;;3.80;2.53;;;;;;;14.69;80.08;98701.69;4198106;27;20037;-72
2022/05/27 05:16:41;;;;;;;4.50;2.80;;;;;;;14.65;80.16;98705.69;4187772;28;20127;-73
2022/05/27 05:18:42;;;;;;;3.72;2.80;;;;;;;14.58;81.11;98710.06;4185479;28;20075;-72
2022/05/27 05:20:42;;;;;;;3.30;2.45;;;;;;;14.58;82.24;98710.06;4186055;28;20453;-72
2022/05/27 05:22:43;;;;;;;3.08;2.42;;;;;;;14.51;82.52;98701.69;4186060;28;20024;-72
2022/05/27 05:24:44;;;;;;;4.90;2.92;;;;;;;14.48;82.34;98712.81;4185781;28;20058;-73
2022/05/27 05:26:44;;;;;;;5.28;2.83;;;;;;;14.43;82.90;98704.84;4186076;28;20541;-73
2022/05/27 05:28:44;;;;;;;4.30;2.85;;;;;;;14.41;83.86;98707.25;4185767;28;20435;-73
2022/05/27 05:30:45;;;;;;;3.17;2.88;;;;;;;14.40;83.94;98698.13;4188355;28;20113;-72
2022/05/27 05:32:45;;;;;;;2.70;2.30;;;;;;;14.38;83.10;98706.03;4185759;28;20039;-73
2022/05/27 05:34:45;;;;;;;4.28;2.97;;;;;;;14.38;84.59;98697.69;4184760;28;20042;-73
2022/05/27 05:36:46;;;;;;;5.05;2.80;;;;;;;14.36;84.56;98700.09;4191691;28;20039;-72
2022/05/27 05:38:46;;;;;;;4.35;2.90;;;;;;;14.32;84.58;98707.66;4198085;27;20051;-73
2022/05/27 05:40:47;;;;;;;4.38;2.70;;;;;;;14.32;84.18;98707.66;4200129;27;20389;-72
2022/05/27 05:42:47;;;;;;;6.03;3.17;;;;;;;14.27;84.77;98713.59;4199454;27;20435;-73
2022/05/27 05:44:47;;;;;;;5.97;3.15;;;;;;;14.27;86.50;98716.38;4199550;27;20066;-72
2022/05/27 05:46:49;;;;;;;5.13;3.40;;;;;;;14.25;86.18;98713.22;4199556;28;20040;-72
2022/05/27 05:48:49;;;;;;;4.95;3.50;;;;;;;14.22;86.53;98714.00;4184271;28;20029;-72
2022/05/27 05:50:50;;;;;;;3.13;2.72;;;;;;;14.19;87.28;98721.16;4186102;28;20488;-72
2022/05/27 05:52:50;;;;;;;5.45;2.67;;;;;;;14.22;86.76;98716.78;4185346;28;20057;-72
2022/05/27 05:54:50;;;;;;;4.75;3.42;;;;;;;14.18;87.68;98716.00;4191811;27;20086;-72
2022/05/27 05:56:51;;;;;;;8.18;3.40;;;;;;;14.16;88.66;98735.88;4187765;28;20183;-72
2022/05/27 05:58:52;;;;;;;6.20;3.30;;;;;;;14.09;88.60;98724.72;4186347;28;20044;-72
2022/05/27 06:00:52;;;;;;;6.07;3.30;;;;;;;14.06;88.02;98719.94;4200982;27;20123;-72
2022/05/27 06:02:53;;;;;;;5.25;3.40;;;;;;;14.11;87.64;98722.34;4200762;27;20033;-72
2022/05/27 06:04:53;;;;;;;4.85;2.70;;;;;;;14.06;88.05;98726.28;4201414;27;20274;-72
2022/05/27 06:06:54;;;;;;;3.30;2.70;;;;;;;14.06;88.70;98717.16;4200483;27;20196;-72
2022/05/27 06:08:54;;;;;;;4.45;2.80;;;;;;;14.02;89.89;98728.28;4186416;28;20049;-72
2022/05/27 06:10:55;;;;;;;3.72;3.00;;;;;;;14.01;89.61;98731.47;4187690;28;20552;-72
2022/05/27 06:12:57;;;;;;;4.13;2.80;;;;;;;13.96;90.08;98731.84;4191611;27;20044;-72
2022/05/27 06:14:59;;;;;;;3.63;2.80;;;;;;;13.95;89.61;98735.81;4190161;28;20122;-72
2022/05/27 06:17:00;;;;;;;6.53;3.28;;;;;;;13.91;91.01;98735.03;4187211;28;20041;-72
2022/05/27 06:19:00;;;;;;;5.00;2.75;;;;;;;13.90;90.86;98741.75;4190214;28;20044;-72
2022/05/27 06:21:00;;;;;;;4.28;2.35;;;;;;;13.91;90.12;98751.72;4199187;28;20067;-72
2022/05/27 06:23:06;;;;;;;5.28;3.13;;;;;;;13.90;91.31;98752.88;4199696;28;20389;-72
2022/05/27 06:25:08;;;;;;;3.33;2.70;;;;;;;13.88;91.92;98742.16;4187018;28;21130;-72
2022/05/27 06:27:08;;;;;;;5.32;3.30;;;;;;;13.86;92.05;98749.31;4186237;28;20401;-72
2022/05/27 06:36:05;;;;;;;4.35;3.10;;;;;;;13.95;91.27;98753.31;4200459;27;20565;-72
2022/05/27 06:38:06;;;;;;;5.38;2.72;;;;;;;13.98;90.69;98754.50;4200335;27;20028;-73
2022/05/27 06:40:07;;;;;;;4.30;2.42;;;;;;;13.98;91.29;98752.53;4183320;28;20079;-72
2022/05/27 06:42:10;;;;;;;3.85;3.00;;;;;;;13.99;90.41;98754.13;4187504;28;20106;-72
2022/05/27 06:44:10;;;;;;;2.78;2.47;;;;;;;14.05;89.18;98746.16;4189615;28;20061;-72
2022/05/27 06:46:10;;;;;;;3.17;2.83;;;;;;;14.04;90.25;98752.91;4183632;28;20072;-72
2022/05/27 06:48:11;;;;;;;3.53;2.45;;;;;;;14.03;91.30;98745.78;4187923;27;20372;-72
2022/05/27 06:50:11;;;;;;;4.82;2.75;;;;;;;14.05;90.50;98749.75;4186908;28;20070;-72
2022/05/27 06:52:13;;;;;;;3.80;2.60;;;;;;;14.07;90.72;98735.47;4191405;27;20037;-72
2022/05/27 06:54:15;;;;;;;4.70;2.65;;;;;;;14.12;90.10;98732.25;4190315;28;20119;-72
2022/05/27 06:56:16;;;;;;;2.90;2.60;;;;;;;14.16;89.00;98738.66;4188671;28;20028;-72
2022/05/27 06:58:16;;;;;;;4.15;2.35;;;;;;;14.22;89.39;98744.59;4195300;27;20466;-73
2022/05/27 07:00:17;;;;;;;2.42;2.22;;;;;;;14.29;89.23;98745.41;4202821;27;20503;-72
2022/05/27 07:02:17;;;;;;;4.72;2.70;;;;;;;14.37;89.74;98751.78;4192504;28;20121;-73
2022/05/27 07:04:18;;;;;;;4.22;2.28;;;;;;;14.42;88.42;98739.47;4189658;28;20071;-73
2022/05/27 07:06:18;;;;;;;3.58;2.22;;;;;;;14.46;87.04;98749.41;4187910;28;20037;-72
2022/05/27 07:08:19;;;;;;;4.10;2.22;;;;;;;14.54;87.59;98751.00;4187258;28;20056;-72
2022/05/27 07:10:19;;;;;;;3.97;2.20;;;;;;;14.61;87.94;98744.66;4187567;28;20473;-72
2022/05/27 07:12:19;;;;;;;3.08;2.22;;;;;;;14.69;86.28;98751.00;4187477;28;20405;-72
2022/05/27 07:14:20;;;;;;;2.28;2.03;;;;;;;14.78;87.05;98752.19;4187876;28;20063;-73
2022/05/27 07:16:20;;;;;;;2.88;2.00;;;;;;;14.87;86.76;98746.22;4191661;27;20047;-73
2022/05/27 07:18:20;;;;;;;2.95;2.22;;;;;;;14.92;86.47;98745.81;4193409;28;20037;-72
2022/05/27 07:20:21;;;;;;;2.55;2.10;;;;;;;15.06;84.98;98745.81;4188466;28;20136;-72
2022/05/27 07:22:22;;;;;;;2.92;2.20;;;;;;;15.15;84.02;98740.59;4188658;28;20033;-73
2022/05/27 07:24:23;;;;;;;3.33;2.08;;;;;;;15.18;82.15;98739.00;4201721;27;20435;-73
2022/05/27 07:26:25;;;;;;;2.00;1.80;;;;;;;15.22;82.19;98745.34;4203310;27;20067;-72
2022/05/27 07:28:26;;;;;;;2.67;1.90;;;;;;;15.19;82.36;98737.78;4203221;28;20465;-73
2022/05/27 07:30:26;;;;;;;3.00;1.80;;;;;;;15.20;81.67;98747.75;4203320;27;20039;-72
2022/05/27 07:32:26;;;;;;;3.75;2.22;;;;;;;15.16;82.48;98747.75;4202607;27;20664;-72
2022/05/27 07:34:27;;;;;;;2.45;1.90;;;;;;;15.17;81.50;98746.56;4204445;27;20395;-73
2022/05/27 07:36:28;;;;;;;2.22;1.77;;;;;;;15.14;82.03;98740.97;4196234;28;20044;-73
2022/05/27 07:38:28;;;;;;;3.03;1.63;;;;;;;15.08;80.58;98743.41;4190609;28;20454;-72
2022/05/27 07:40:29;;;;;;;4.20;2.40;;;;;;;15.13;81.44;98747.75;4196345;28;20466;-72
2022/05/27 07:42:30;;;;;;;2.97;1.70;;;;;;;15.13;81.40;98745.75;4191804;27;20044;-73
2022/05/27 07:44:30;;;;;;;2.42;1.40;;;;;;;14.98;81.42;98751.78;4195246;27;20469;-73
2022/05/27 07:46:32;;;;;;;2.60;1.77;;;;;;;14.93;82.07;98778.06;4192595;28;20131;-73
2022/05/27 07:48:32;;;;;;;2.58;1.88;;;;;;;14.30;84.99;98794.31;4196401;27;20456;-73
2022/05/27 07:50:33;;;;;;;2.63;1.23;;;;;;;13.68;82.44;98802.88;4194709;27;20056;-72
2022/05/27 07:52:36;;;;;;;2.22;1.27;;;;;;;13.07;82.93;98787.03;4188222;28;20048;-72
2022/05/27 07:54:37;;;;;;;3.25;1.55;;;;;;;12.93;86.38;98794.09;4188063;28;20036;-72
2022/05/27 07:56:39;;;;;;;2.60;1.50;;;;;;;12.82;86.12;98782.09;4193828;27;20070;-72
2022/05/27 07:58:39;;;;;;;2.47;1.33;;;;;;;12.68;85.91;98792.31;4190321;28;20817;-72
2022/05/27 08:00:40;;;;;;;2.28;1.52;;;;;;;12.71;86.46;98797.09;4188852;28;20056;-72
2022/05/27 08:02:41;;;;;;;2.15;1.38;;;;;;;12.59;87.33;98795.41;4196631;27;20044;-72
2022/05/27 08:04:42;;;;;;;3.28;1.50;;;;;;;12.70;88.58;98789.94;4196114;28;20052;-72
2022/05/27 08:06:42;;;;;;;3.63;1.58;;;;;;;12.57;88.56;98804.09;4192102;28;20129;-72
2022/05/27 08:08:43;;;;;;;4.85;1.60;;;;;;;12.55;89.44;98798.16;4193723;27;20039;-72
2022/05/27 08:10:43;;;;;;;2.58;1.70;;;;;;;12.52;88.97;98796.16;4186989;28;20051;-72
2022/05/27 08:12:44;;;;;;;2.30;1.40;;;;;;;12.43;86.29;98804.00;4188074;28;20036;-72
2022/05/27 08:14:44;;;;;;;3.17;1.42;;;;;;;12.51;86.33;98797.34;4192807;28;20040;-72
2022/05/27 08:16:45;;;;;;;4.65;1.90;;;;;;;12.40;86.99;98801.19;4194459;27;20492;-72
2022/05/27 08:18:45;;;;;;;3.92;1.70;;;;;;;12.44;85.04;98802.03;4191126;28;20040;-72
2022/05/27 08:20:46;;;;;;;2.42;1.55;;;;;;;12.61;85.95;98801.38;4188072;28;20040;-72
2022/05/27 08:22:48;;;;;;;2.25;1.80;;;;;;;12.61;84.97;98801.38;4188115;28;20043;-72
2022/05/27 08:24:48;;;;;;;2.92;1.60;;;;;;;12.80;84.43;98798.34;4187631;28;20045;-72
2022/05/27 08:26:49;;;;;;;2.63;1.85;;;;;;;12.77;83.21;98796.34;4186800;28;20098;-72
2022/05/27 08:28:49;;;;;;;3.00;2.20;;;;;;;12.97;84.40;98799.66;4199371;27;20121;-72
2022/05/27 08:30:51;;;;;;;2.15;1.80;;;;;;;13.13;83.68;98808.50;4193478;28;20388;-72
2022/05/27 08:32:51;;;;;;;5.72;2.10;;;;;;;13.28;82.59;98809.44;4192272;28;20067;-72
2022/05/27 08:39:29;;;;;;;3.55;1.70;;;;;;;13.39;81.21;98804.72;4186602;28;20531;-72
2022/05/27 08:42:08;;;;;;;2.90;1.92;;;;;;;13.45;80.93;98816.28;4188844;28;20079;-72
2022/05/27 08:44:22;;;;;;;3.10;1.83;;;;;;;13.48;82.79;98821.03;4184072;28;20052;-72
2022/05/27 08:46:49;;;;;;;2.40;1.70;;;;;;;13.54;82.75;98816.72;4188292;28;20064;-72
2022/05/27 08:48:54;;;;;;;2.75;2.08;;;;;;;13.46;82.70;98818.66;4191671;27;20040;-72
2022/05/27 08:51:01;;;;;;;4.18;1.90;;;;;;;13.41;83.59;98818.25;4186817;27;20052;-72
2022/05/27 08:53:25;;;;;;;3.53;1.88;;;;;;;13.40;82.77;98822.19;4191468;28;20101;-72
2022/05/27 09:00:29;;;;;;;5.67;2.43;;;;;;;13.33;82.92;98820.19;4185793;28;20272;-72
2022/05/27 09:03:04;;;;;;;3.72;2.20;;;;;;;13.36;82.39;98824.16;4188737;27;20148;-72
2022/05/27 09:05:34;;;;;;;4.28;2.03;;;;;;;13.42;82.79;98815.06;4183774;28;20056;-72
2022/05/27 09:07:41;;;;;;;4.50;1.85;;;;;;;13.37;80.35;98823.78;4184849;28;20040;-72
2022/05/27 09:09:41;;;;;;;5.68;2.10;;;;;;;13.37;79.64;98817.41;4193353;27;20036;-72
2022/05/27 09:12:22;;;;;;;4.05;1.90;;;;;;;13.40;81.49;98822.97;4185268;28;20250;-72
2022/05/27 09:14:25;;;;;;;3.08;1.83;;;;;;;13.38;80.90;98819.00;4185510;28;20419;-72
2022/05/27 09:16:38;;;;;;;4.43;1.90;;;;;;;13.46;79.84;98815.88;4190024;27;20139;-72
2022/05/27 09:19:13;;;;;;;3.22;2.10;;;;;;;13.61;79.45;98824.28;4189456;27;20045;-72
2022/05/27 09:21:37;;;;;;;3.72;1.92;;;;;;;13.78;78.81;98824.38;4189591;28;20079;-72
2022/05/27 09:23:44;;;;;;;3.65;2.08;;;;;;;13.87;78.33;98832.34;4187836;27;20732;-72
2022/05/27 09:25:49;;;;;;;4.38;2.47;;;;;;;13.92;76.68;98836.75;4186084;28;20052;-72
2022/05/27 09:28:07;;;;;;;2.63;1.85;;;;;;;13.92;78.58;98820.06;4194526;28;20163;-72
2022/05/27 09:30:11;;;;;;;2.72;1.83;;;;;;;14.00;78.22;98816.91;4200042;28;20080;-72
2022/05/27 09:32:30;;;;;;;2.60;1.90;;;;;;;14.02;76.78;98828.44;4201978;27;20032;-72
2022/05/27 09:34:35;;;;;;;2.90;1.80;;;;;;;13.92;76.73;98822.84;4191486;28;20040;-72
2022/05/27 09:36:39;;;;;;;3.47;2.10;;;;;;;14.03;78.58;98834.78;4186762;28;20048;-72
2022/05/27 09:38:48;;;;;;;3.22;2.00;;;;;;;14.09;78.75;98844.34;4185645;28;20075;-72
2022/05/27 09:40:55;;;;;;;4.07;2.60;;;;;;;14.12;78.19;98843.56;4193220;28;20039;-72
2022/05/27 09:43:01;;;;;;;2.75;1.90;;;;;;;14.11;75.88;98836.41;4195802;27;20040;-72
2022/05/27 09:45:03;;;;;;;3.70;2.17;;;;;;;14.20;77.74;98838.81;4194115;28;20268;-72
2022/05/27 09:47:04;;;;;;;3.70;2.17;;;;;;;14.15;77.04;98839.19;4201168;27;20883;-72
2022/05/27 09:49:05;;;;;;;3.35;2.10;;;;;;;14.25;77.55;98841.22;4201474;27;20395;-72
2022/05/27 09:51:09;;;;;;;3.58;2.10;;;;;;;14.32;77.96;98841.25;4195702;27;20059;-72
2022/05/27 09:53:19;;;;;;;4.22;2.05;;;;;;;14.32;77.64;98850.41;4186867;28;20647;-72
2022/05/27 09:55:35;;;;;;;3.97;2.45;;;;;;;14.23;76.84;98851.94;4186645;28;20040;-72
2022/05/27 09:57:35;;;;;;;6.78;2.20;;;;;;;13.92;79.27;98857.00;4185302;28;20048;-72
2022/05/27 09:59:39;;;;;;;3.25;2.28;;;;;;;13.81;80.67;98849.78;4186070;28;20515;-72
2022/05/27 10:01:39;;;;;;;4.15;2.38;;;;;;;13.68;82.18;98841.81;4190585;28;20139;-72
2022/05/27 10:03:39;;;;;;;3.20;2.05;;;;;;;13.62;84.52;98842.56;4193287;27;20521;-73
2022/05/27 10:05:40;;;;;;;3.55;2.40;;;;;;;13.55;86.32;98839.75;4187617;28;20048;-72
2022/05/27 10:07:52;;;;;;;5.53;2.63;;;;;;;13.70;87.35;98846.97;4189426;28;20105;-72
2022/05/27 10:09:52;;;;;;;7.70;2.70;;;;;;;13.79;87.12;98844.63;4200143;27;20143;-72
2022/05/27 10:11:56;;;;;;;4.18;2.95;;;;;;;13.85;87.17;98843.06;4201290;27;20076;-72
2022/05/27 10:14:20;;;;;;;3.10;2.53;;;;;;;13.93;86.00;98839.13;4191578;27;20044;-72